sensor_id;sensor_type;location;lat;lon;timestamp;temperature;humidity
61016;DHT22;46902;52.920;6.536;2023-02-28T00:00:04;5.30;99.90
61016;DHT22;46902;52.920;6.536;2023-02-28T00:02:39;5.30;99.90
61016;DHT22;46902;52.920;6.536;2023-02-28T00:05:06;5.30;99.90
61016;DHT22;46902;52.920;6.536;2023-02-28T00:07:32;5.30;99.90
61016;DHT22;46902;52.920;6.536;2023-02-28T00:09:57;5.30;99.90
61016;DHT22;46902;52.920;6.536;2023-02-28T00:12:24;5.20;99.90
61016;DHT22;46902;52.920;6.536;2023-02-28T00:14:50;5.20;99.90
61016;DHT22;46902;52.920;6.536;2023-02-28T00:17:15;5.20;99.90
61016;DHT22;46902;52.920;6.536;2023-02-28T00:19:47;5.20;99.90
61016;DHT22;46902;52.920;6.536;2023-02-28T00:22:13;5.20;99.90
61016;DHT22;46902;52.920;6.536;2023-02-28T00:24:39;5.20;99.90
61016;DHT22;46902;52.920;6.536;2023-02-28T00:27:04;5.20;99.90
61016;DHT22;46902;52.920;6.536;2023-02-28T00:29:30;5.20;99.90
61016;DHT22;46902;52.920;6.536;2023-02-28T00:31:56;5.20;99.90
61016;DHT22;46902;52.920;6.536;2023-02-28T00:34:21;5.30;99.90
61016;DHT22;46902;52.920;6.536;2023-02-28T00:36:47;5.20;99.90
61016;DHT22;46902;52.920;6.536;2023-02-28T00:39:15;5.30;99.90
61016;DHT22;46902;52.920;6.536;2023-02-28T00:41:41;5.30;99.90
61016;DHT22;46902;52.920;6.536;2023-02-28T00:44:06;5.30;99.90
61016;DHT22;46902;52.920;6.536;2023-02-28T00:46:32;5.30;99.90
61016;DHT22;46902;52.920;6.536;2023-02-28T00:48:58;5.20;99.90
61016;DHT22;46902;52.920;6.536;2023-02-28T00:51:24;5.20;99.90
61016;DHT22;46902;52.920;6.536;2023-02-28T00:53:50;5.20;99.90
61016;DHT22;46902;52.920;6.536;2023-02-28T00:56:16;5.30;99.90
61016;DHT22;46902;52.920;6.536;2023-02-28T00:58:41;5.20;99.90
61016;DHT22;46902;52.920;6.536;2023-02-28T01:01:07;5.20;99.90
61016;DHT22;46902;52.920;6.536;2023-02-28T01:03:33;5.20;99.90
61016;DHT22;46902;52.920;6.536;2023-02-28T01:05:59;5.20;99.90
61016;DHT22;46902;52.920;6.536;2023-02-28T01:08:24;5.20;99.90
61016;DHT22;46902;52.920;6.536;2023-02-28T01:10:51;5.10;99.90
61016;DHT22;46902;52.920;6.536;2023-02-28T01:13:17;5.10;99.90
61016;DHT22;46902;52.920;6.536;2023-02-28T01:15:50;5.10;99.90
61016;DHT22;46902;52.920;6.536;2023-02-28T01:18:16;5.10;99.90
61016;DHT22;46902;52.920;6.536;2023-02-28T01:20:42;5.10;99.90
61016;DHT22;46902;52.920;6.536;2023-02-28T01:23:08;5.10;99.90
61016;DHT22;46902;52.920;6.536;2023-02-28T01:25:37;5.10;99.90
61016;DHT22;46902;52.920;6.536;2023-02-28T01:28:03;5.10;99.90
61016;DHT22;46902;52.920;6.536;2023-02-28T01:30:28;5.10;99.90
61016;DHT22;46902;52.920;6.536;2023-02-28T01:32:54;5.10;99.90
61016;DHT22;46902;52.920;6.536;2023-02-28T01:35:20;5.10;99.90
61016;DHT22;46902;52.920;6.536;2023-02-28T01:37:45;5.10;99.90
61016;DHT22;46902;52.920;6.536;2023-02-28T01:40:12;5.10;99.90
61016;DHT22;46902;52.920;6.536;2023-02-28T01:42:37;5.10;99.90
61016;DHT22;46902;52.920;6.536;2023-02-28T01:45:28;5.20;99.90
61016;DHT22;46902;52.920;6.536;2023-02-28T01:48:00;5.20;99.90
61016;DHT22;46902;52.920;6.536;2023-02-28T01:50:29;5.20;99.90
61016;DHT22;46902;52.920;6.536;2023-02-28T01:53:01;5.20;99.90
61016;DHT22;46902;52.920;6.536;2023-02-28T01:55:28;5.20;99.90
61016;DHT22;46902;52.920;6.536;2023-02-28T01:57:57;5.20;99.90
61016;DHT22;46902;52.920;6.536;2023-02-28T02:00:26;5.20;99.90
61016;DHT22;46902;52.920;6.536;2023-02-28T02:02:58;5.20;99.90
61016;DHT22;46902;52.920;6.536;2023-02-28T02:05:27;5.20;99.90
61016;DHT22;46902;52.920;6.536;2023-02-28T02:08:05;5.20;99.90
61016;DHT22;46902;52.920;6.536;2023-02-28T02:10:42;5.30;99.90
61016;DHT22;46902;52.920;6.536;2023-02-28T02:18:47;5.20;99.90
61016;DHT22;46902;52.920;6.536;2023-02-28T02:27:39;5.20;99.90
61016;DHT22;46902;52.920;6.536;2023-02-28T02:40:43;5.10;99.90
61016;DHT22;46902;52.920;6.536;2023-02-28T02:43:49;5.00;99.90
61016;DHT22;46902;52.920;6.536;2023-02-28T02:46:22;5.00;99.90
61016;DHT22;46902;52.920;6.536;2023-02-28T02:48:49;5.00;99.90
61016;DHT22;46902;52.920;6.536;2023-02-28T02:51:18;5.00;99.90
61016;DHT22;46902;52.920;6.536;2023-02-28T02:53:55;5.00;99.90
61016;DHT22;46902;52.920;6.536;2023-02-28T02:56:25;5.00;99.90
61016;DHT22;46902;52.920;6.536;2023-02-28T02:58:54;4.90;99.90
61016;DHT22;46902;52.920;6.536;2023-02-28T03:01:24;4.90;99.90
61016;DHT22;46902;52.920;6.536;2023-02-28T03:04:16;4.90;99.90
61016;DHT22;46902;52.920;6.536;2023-02-28T03:06:42;4.90;99.90
61016;DHT22;46902;52.920;6.536;2023-02-28T03:09:07;4.80;99.90
61016;DHT22;46902;52.920;6.536;2023-02-28T03:11:35;4.80;99.90
61016;DHT22;46902;52.920;6.536;2023-02-28T03:17:12;4.80;99.90
61016;DHT22;46902;52.920;6.536;2023-02-28T03:25:31;4.80;99.90
61016;DHT22;46902;52.920;6.536;2023-02-28T03:28:14;4.70;99.90
61016;DHT22;46902;52.920;6.536;2023-02-28T03:33:43;4.70;99.90
61016;DHT22;46902;52.920;6.536;2023-02-28T03:36:13;4.60;99.90
61016;DHT22;46902;52.920;6.536;2023-02-28T03:44:29;4.50;99.90
61016;DHT22;46902;52.920;6.536;2023-02-28T03:47:04;4.50;99.90
61016;DHT22;46902;52.920;6.536;2023-02-28T03:49:46;4.50;99.90
61016;DHT22;46902;52.920;6.536;2023-02-28T03:52:15;4.50;99.90
61016;DHT22;46902;52.920;6.536;2023-02-28T03:54:45;4.50;99.90
61016;DHT22;46902;52.920;6.536;2023-02-28T04:02:33;4.40;99.90
61016;DHT22;46902;52.920;6.536;2023-02-28T04:05:00;4.40;99.90
61016;DHT22;46902;52.920;6.536;2023-02-28T04:07:29;4.40;99.90
61016;DHT22;46902;52.920;6.536;2023-02-28T04:09:55;4.40;99.90
61016;DHT22;46902;52.920;6.536;2023-02-28T04:12:20;4.30;99.90
61016;DHT22;46902;52.920;6.536;2023-02-28T04:14:49;4.30;99.90
61016;DHT22;46902;52.920;6.536;2023-02-28T04:17:15;4.30;99.90
61016;DHT22;46902;52.920;6.536;2023-02-28T04:19:40;4.30;99.90
61016;DHT22;46902;52.920;6.536;2023-02-28T04:22:07;4.30;99.90
61016;DHT22;46902;52.920;6.536;2023-02-28T04:24:33;4.20;99.90
61016;DHT22;46902;52.920;6.536;2023-02-28T04:26:58;4.10;99.90
61016;DHT22;46902;52.920;6.536;2023-02-28T04:29:29;4.10;99.90
61016;DHT22;46902;52.920;6.536;2023-02-28T04:31:55;4.10;99.90
61016;DHT22;46902;52.920;6.536;2023-02-28T04:34:23;4.00;99.90
61016;DHT22;46902;52.920;6.536;2023-02-28T04:36:50;4.10;99.90
61016;DHT22;46902;52.920;6.536;2023-02-28T04:39:16;4.00;99.90
61016;DHT22;46902;52.920;6.536;2023-02-28T04:41:44;4.00;99.90
61016;DHT22;46902;52.920;6.536;2023-02-28T04:44:10;4.00;99.90
61016;DHT22;46902;52.920;6.536;2023-02-28T04:46:35;4.00;99.90
61016;DHT22;46902;52.920;6.536;2023-02-28T04:49:01;3.90;99.90
61016;DHT22;46902;52.920;6.536;2023-02-28T04:51:27;3.90;99.90
61016;DHT22;46902;52.920;6.536;2023-02-28T04:53:52;3.80;99.90
61016;DHT22;46902;52.920;6.536;2023-02-28T04:56:18;3.80;99.90
61016;DHT22;46902;52.920;6.536;2023-02-28T04:58:45;3.70;99.90
61016;DHT22;46902;52.920;6.536;2023-02-28T05:01:29;3.60;99.90
61016;DHT22;46902;52.920;6.536;2023-02-28T05:03:57;3.60;99.90
61016;DHT22;46902;52.920;6.536;2023-02-28T05:06:24;3.50;99.90
61016;DHT22;46902;52.920;6.536;2023-02-28T05:08:51;3.50;99.90
61016;DHT22;46902;52.920;6.536;2023-02-28T05:11:26;3.50;99.90
61016;DHT22;46902;52.920;6.536;2023-02-28T05:13:52;3.50;99.90
61016;DHT22;46902;52.920;6.536;2023-02-28T05:16:18;3.50;99.90
61016;DHT22;46902;52.920;6.536;2023-02-28T05:18:44;3.40;99.90
61016;DHT22;46902;52.920;6.536;2023-02-28T05:21:30;3.50;99.90
61016;DHT22;46902;52.920;6.536;2023-02-28T05:23:58;3.50;99.90
61016;DHT22;46902;52.920;6.536;2023-02-28T05:26:24;3.50;99.90
61016;DHT22;46902;52.920;6.536;2023-02-28T05:28:50;3.50;99.90
61016;DHT22;46902;52.920;6.536;2023-02-28T05:31:16;3.60;99.90
61016;DHT22;46902;52.920;6.536;2023-02-28T05:33:41;3.60;99.90
61016;DHT22;46902;52.920;6.536;2023-02-28T05:36:07;3.60;99.90
61016;DHT22;46902;52.920;6.536;2023-02-28T05:38:33;3.60;99.90
61016;DHT22;46902;52.920;6.536;2023-02-28T05:40:59;3.60;99.90
61016;DHT22;46902;52.920;6.536;2023-02-28T05:43:24;3.60;99.90
61016;DHT22;46902;52.920;6.536;2023-02-28T05:45:50;3.50;99.90
61016;DHT22;46902;52.920;6.536;2023-02-28T05:48:16;3.50;99.90
61016;DHT22;46902;52.920;6.536;2023-02-28T05:50:43;3.40;99.90
61016;DHT22;46902;52.920;6.536;2023-02-28T05:53:11;3.30;99.90
61016;DHT22;46902;52.920;6.536;2023-02-28T05:55:37;3.30;99.90
61016;DHT22;46902;52.920;6.536;2023-02-28T05:58:03;3.20;99.90
61016;DHT22;46902;52.920;6.536;2023-02-28T06:00:29;3.30;99.90
61016;DHT22;46902;52.920;6.536;2023-02-28T06:02:55;3.30;99.90
61016;DHT22;46902;52.920;6.536;2023-02-28T06:05:23;3.30;99.90
61016;DHT22;46902;52.920;6.536;2023-02-28T06:07:50;3.30;99.90
61016;DHT22;46902;52.920;6.536;2023-02-28T06:10:15;3.30;99.90
61016;DHT22;46902;52.920;6.536;2023-02-28T06:12:41;3.20;99.90
61016;DHT22;46902;52.920;6.536;2023-02-28T06:15:16;3.20;99.90
61016;DHT22;46902;52.920;6.536;2023-02-28T06:17:43;3.20;99.90
61016;DHT22;46902;52.920;6.536;2023-02-28T06:20:11;3.20;99.90
61016;DHT22;46902;52.920;6.536;2023-02-28T06:22:39;3.30;99.90
61016;DHT22;46902;52.920;6.536;2023-02-28T06:25:05;3.30;99.90
61016;DHT22;46902;52.920;6.536;2023-02-28T06:27:32;3.40;99.90
61016;DHT22;46902;52.920;6.536;2023-02-28T06:29:58;3.40;99.90
61016;DHT22;46902;52.920;6.536;2023-02-28T06:32:24;3.40;99.90
61016;DHT22;46902;52.920;6.536;2023-02-28T06:34:50;3.40;99.90
61016;DHT22;46902;52.920;6.536;2023-02-28T06:37:16;3.50;99.90
61016;DHT22;46902;52.920;6.536;2023-02-28T06:39:42;3.50;99.90
61016;DHT22;46902;52.920;6.536;2023-02-28T06:42:07;3.50;99.90
61016;DHT22;46902;52.920;6.536;2023-02-28T06:44:33;3.50;99.90
61016;DHT22;46902;52.920;6.536;2023-02-28T06:47:03;3.50;99.90
61016;DHT22;46902;52.920;6.536;2023-02-28T06:49:31;3.60;99.90
61016;DHT22;46902;52.920;6.536;2023-02-28T06:51:56;3.60;99.90
61016;DHT22;46902;52.920;6.536;2023-02-28T06:54:22;3.60;99.90
61016;DHT22;46902;52.920;6.536;2023-02-28T06:56:48;3.60;99.90
61016;DHT22;46902;52.920;6.536;2023-02-28T06:59:14;3.70;99.90
61016;DHT22;46902;52.920;6.536;2023-02-28T07:01:40;3.60;99.90
61016;DHT22;46902;52.920;6.536;2023-02-28T07:04:06;3.70;99.90
61016;DHT22;46902;52.920;6.536;2023-02-28T07:06:32;3.70;99.90
61016;DHT22;46902;52.920;6.536;2023-02-28T07:08:58;3.60;99.90
61016;DHT22;46902;52.920;6.536;2023-02-28T07:11:25;3.60;99.90
61016;DHT22;46902;52.920;6.536;2023-02-28T07:13:55;3.70;99.90
61016;DHT22;46902;52.920;6.536;2023-02-28T07:16:21;3.70;99.90
61016;DHT22;46902;52.920;6.536;2023-02-28T07:18:47;3.70;99.90
61016;DHT22;46902;52.920;6.536;2023-02-28T07:21:13;3.70;99.90
61016;DHT22;46902;52.920;6.536;2023-02-28T07:23:39;3.70;99.90
61016;DHT22;46902;52.920;6.536;2023-02-28T07:26:06;3.80;99.90
61016;DHT22;46902;52.920;6.536;2023-02-28T07:28:32;3.80;99.90
61016;DHT22;46902;52.920;6.536;2023-02-28T07:31:06;3.70;99.90
61016;DHT22;46902;52.920;6.536;2023-02-28T07:33:32;3.80;99.90
61016;DHT22;46902;52.920;6.536;2023-02-28T07:36:16;3.80;99.90
61016;DHT22;46902;52.920;6.536;2023-02-28T07:38:45;3.80;99.90
61016;DHT22;46902;52.920;6.536;2023-02-28T07:41:11;3.70;99.90
61016;DHT22;46902;52.920;6.536;2023-02-28T07:43:38;3.80;99.90
61016;DHT22;46902;52.920;6.536;2023-02-28T07:46:08;3.80;99.90
61016;DHT22;46902;52.920;6.536;2023-02-28T07:48:35;3.80;99.90
61016;DHT22;46902;52.920;6.536;2023-02-28T07:51:01;3.80;99.90
61016;DHT22;46902;52.920;6.536;2023-02-28T07:53:27;3.80;99.90
61016;DHT22;46902;52.920;6.536;2023-02-28T07:55:57;3.80;99.90
61016;DHT22;46902;52.920;6.536;2023-02-28T07:58:23;3.80;99.90
61016;DHT22;46902;52.920;6.536;2023-02-28T08:00:49;3.80;99.90
61016;DHT22;46902;52.920;6.536;2023-02-28T08:03:18;3.80;99.90
61016;DHT22;46902;52.920;6.536;2023-02-28T08:05:44;3.80;99.90
61016;DHT22;46902;52.920;6.536;2023-02-28T08:08:09;3.80;99.90
61016;DHT22;46902;52.920;6.536;2023-02-28T08:10:36;3.90;99.90
61016;DHT22;46902;52.920;6.536;2023-02-28T08:13:02;3.90;99.90
61016;DHT22;46902;52.920;6.536;2023-02-28T08:15:28;3.90;99.90
61016;DHT22;46902;52.920;6.536;2023-02-28T08:17:53;4.00;99.90
61016;DHT22;46902;52.920;6.536;2023-02-28T08:20:22;4.00;99.90
61016;DHT22;46902;52.920;6.536;2023-02-28T08:22:48;4.00;99.90
61016;DHT22;46902;52.920;6.536;2023-02-28T08:25:13;4.10;99.90
61016;DHT22;46902;52.920;6.536;2023-02-28T08:27:39;4.10;99.90
61016;DHT22;46902;52.920;6.536;2023-02-28T08:30:05;4.20;99.90
61016;DHT22;46902;52.920;6.536;2023-02-28T08:32:33;4.40;99.90
61016;DHT22;46902;52.920;6.536;2023-02-28T08:34:58;4.50;99.90
61016;DHT22;46902;52.920;6.536;2023-02-28T08:37:24;4.60;99.90
61016;DHT22;46902;52.920;6.536;2023-02-28T08:39:50;4.70;99.90
61016;DHT22;46902;52.920;6.536;2023-02-28T08:42:15;4.70;99.90
61016;DHT22;46902;52.920;6.536;2023-02-28T08:44:41;4.70;99.90
61016;DHT22;46902;52.920;6.536;2023-02-28T08:47:06;4.80;99.90
61016;DHT22;46902;52.920;6.536;2023-02-28T08:49:32;4.80;99.90
61016;DHT22;46902;52.920;6.536;2023-02-28T08:51:58;4.90;99.90
61016;DHT22;46902;52.920;6.536;2023-02-28T08:54:24;4.90;99.90
61016;DHT22;46902;52.920;6.536;2023-02-28T08:56:50;4.90;99.90
61016;DHT22;46902;52.920;6.536;2023-02-28T08:59:15;5.00;99.90
61016;DHT22;46902;52.920;6.536;2023-02-28T09:01:41;5.20;99.90
61016;DHT22;46902;52.920;6.536;2023-02-28T09:04:09;5.30;99.90
61016;DHT22;46902;52.920;6.536;2023-02-28T09:06:36;5.40;99.90
61016;DHT22;46902;52.920;6.536;2023-02-28T09:09:02;5.50;99.90
61016;DHT22;46902;52.920;6.536;2023-02-28T09:11:29;5.60;99.90
61016;DHT22;46902;52.920;6.536;2023-02-28T09:13:55;5.70;99.90
61016;DHT22;46902;52.920;6.536;2023-02-28T09:16:21;5.90;99.90
61016;DHT22;46902;52.920;6.536;2023-02-28T09:18:47;6.00;99.90
61016;DHT22;46902;52.920;6.536;2023-02-28T09:21:15;6.60;99.90
61016;DHT22;46902;52.920;6.536;2023-02-28T09:23:46;7.70;99.90
61016;DHT22;46902;52.920;6.536;2023-02-28T09:26:18;9.20;99.90
61016;DHT22;46902;52.920;6.536;2023-02-28T09:28:44;10.20;99.90
61016;DHT22;46902;52.920;6.536;2023-02-28T09:31:16;10.50;99.90
61016;DHT22;46902;52.920;6.536;2023-02-28T09:33:42;11.30;99.90
61016;DHT22;46902;52.920;6.536;2023-02-28T09:36:08;12.50;99.40
61016;DHT22;46902;52.920;6.536;2023-02-28T09:38:33;13.50;95.70
61016;DHT22;46902;52.920;6.536;2023-02-28T09:41:10;14.40;92.20
61016;DHT22;46902;52.920;6.536;2023-02-28T09:43:42;15.10;85.90
61016;DHT22;46902;52.920;6.536;2023-02-28T09:48:50;16.20;79.30
61016;DHT22;46902;52.920;6.536;2023-02-28T09:51:30;16.70;76.20
61016;DHT22;46902;52.920;6.536;2023-02-28T09:53:58;16.50;72.10
61016;DHT22;46902;52.920;6.536;2023-02-28T09:56:30;16.50;71.90
61016;DHT22;46902;52.920;6.536;2023-02-28T10:06:54;17.60;62.20
61016;DHT22;46902;52.920;6.536;2023-02-28T10:09:32;17.80;60.70
61016;DHT22;46902;52.920;6.536;2023-02-28T10:12:05;17.60;59.40
61016;DHT22;46902;52.920;6.536;2023-02-28T10:14:35;17.10;59.80
61016;DHT22;46902;52.920;6.536;2023-02-28T10:17:14;16.60;59.30
61016;DHT22;46902;52.920;6.536;2023-02-28T10:20:10;16.60;59.80
61016;DHT22;46902;52.920;6.536;2023-02-28T10:23:17;17.00;59.20
61016;DHT22;46902;52.920;6.536;2023-02-28T10:25:52;17.30;58.80
61016;DHT22;46902;52.920;6.536;2023-02-28T10:28:18;16.80;58.60
61016;DHT22;46902;52.920;6.536;2023-02-28T10:30:49;15.60;59.70
61016;DHT22;46902;52.920;6.536;2023-02-28T10:35:50;13.10;64.40
61016;DHT22;46902;52.920;6.536;2023-02-28T10:38:20;12.10;66.80
61016;DHT22;46902;52.920;6.536;2023-02-28T10:40:47;11.40;68.60
61016;DHT22;46902;52.920;6.536;2023-02-28T10:45:38;10.30;71.00
61016;DHT22;46902;52.920;6.536;2023-02-28T10:50:51;10.60;72.50
61016;DHT22;46902;52.920;6.536;2023-02-28T10:53:34;12.10;70.70
61016;DHT22;46902;52.920;6.536;2023-02-28T10:59:02;14.70;65.50
61016;DHT22;46902;52.920;6.536;2023-02-28T11:01:45;15.70;62.20
61016;DHT22;46902;52.920;6.536;2023-02-28T11:07:00;17.20;60.20
61016;DHT22;46902;52.920;6.536;2023-02-28T11:09:31;17.80;58.20
61016;DHT22;46902;52.920;6.536;2023-02-28T11:12:00;17.70;57.30
61016;DHT22;46902;52.920;6.536;2023-02-28T11:14:29;16.70;58.20
61016;DHT22;46902;52.920;6.536;2023-02-28T11:16:58;15.60;59.30
61016;DHT22;46902;52.920;6.536;2023-02-28T11:19:30;15.00;60.30
61016;DHT22;46902;52.920;6.536;2023-02-28T11:22:04;14.70;60.60
61016;DHT22;46902;52.920;6.536;2023-02-28T11:24:43;14.90;61.20
61016;DHT22;46902;52.920;6.536;2023-02-28T11:29:59;14.50;62.50
61016;DHT22;46902;52.920;6.536;2023-02-28T11:32:27;14.70;63.30
61016;DHT22;46902;52.920;6.536;2023-02-28T11:37:34;13.50;65.60
61016;DHT22;46902;52.920;6.536;2023-02-28T11:40:00;13.10;67.30
61016;DHT22;46902;52.920;6.536;2023-02-28T11:45:36;13.10;67.50
61016;DHT22;46902;52.920;6.536;2023-02-28T11:48:25;12.40;67.70
61016;DHT22;46902;52.920;6.536;2023-02-28T11:51:27;11.80;68.70
61016;DHT22;46902;52.920;6.536;2023-02-28T11:54:30;11.20;70.10
61016;DHT22;46902;52.920;6.536;2023-02-28T12:00:32;11.70;71.30
61016;DHT22;46902;52.920;6.536;2023-02-28T12:05:53;11.00;71.00
61016;DHT22;46902;52.920;6.536;2023-02-28T12:08:47;10.60;71.60
61016;DHT22;46902;52.920;6.536;2023-02-28T12:28:14;14.00;62.50
61016;DHT22;46902;52.920;6.536;2023-02-28T12:31:09;13.90;62.30
61016;DHT22;46902;52.920;6.536;2023-02-28T12:33:38;14.10;61.70
61016;DHT22;46902;52.920;6.536;2023-02-28T12:36:11;14.40;61.20
61016;DHT22;46902;52.920;6.536;2023-02-28T12:38:47;14.50;62.30
61016;DHT22;46902;52.920;6.536;2023-02-28T12:41:20;14.80;62.70
61016;DHT22;46902;52.920;6.536;2023-02-28T12:43:53;15.10;62.60
61016;DHT22;46902;52.920;6.536;2023-02-28T12:46:41;15.30;62.30
61016;DHT22;46902;52.920;6.536;2023-02-28T12:49:23;15.30;62.10
61016;DHT22;46902;52.920;6.536;2023-02-28T12:51:52;15.40;61.80
61016;DHT22;46902;52.920;6.536;2023-02-28T12:57:13;15.80;59.30
61016;DHT22;46902;52.920;6.536;2023-02-28T12:59:48;15.90;59.30
61016;DHT22;46902;52.920;6.536;2023-02-28T13:10:48;16.30;57.80
61016;DHT22;46902;52.920;6.536;2023-02-28T13:13:28;16.20;55.30
61016;DHT22;46902;52.920;6.536;2023-02-28T13:16:03;16.30;55.30
61016;DHT22;46902;52.920;6.536;2023-02-28T13:18:37;16.30;53.90
61016;DHT22;46902;52.920;6.536;2023-02-28T13:21:07;16.30;53.30
61016;DHT22;46902;52.920;6.536;2023-02-28T13:26:12;16.20;52.30
61016;DHT22;46902;52.920;6.536;2023-02-28T13:28:58;16.20;53.90
61016;DHT22;46902;52.920;6.536;2023-02-28T13:31:24;16.30;52.50
61016;DHT22;46902;52.920;6.536;2023-02-28T13:36:32;16.30;53.20
61016;DHT22;46902;52.920;6.536;2023-02-28T13:38:59;16.40;51.30
61016;DHT22;46902;52.920;6.536;2023-02-28T13:46:37;15.70;53.00
61016;DHT22;46902;52.920;6.536;2023-02-28T13:49:28;15.60;53.90
61016;DHT22;46902;52.920;6.536;2023-02-28T14:06:26;15.50;55.40
61016;DHT22;46902;52.920;6.536;2023-02-28T14:08:57;15.50;55.70
61016;DHT22;46902;52.920;6.536;2023-02-28T14:11:28;15.10;55.80
61016;DHT22;46902;52.920;6.536;2023-02-28T14:13:54;14.60;55.70
61016;DHT22;46902;52.920;6.536;2023-02-28T14:16:25;14.20;56.50
61016;DHT22;46902;52.920;6.536;2023-02-28T14:18:58;14.00;57.50
61016;DHT22;46902;52.920;6.536;2023-02-28T14:21:31;14.00;57.40
61016;DHT22;46902;52.920;6.536;2023-02-28T14:37:29;13.70;56.40
61016;DHT22;46902;52.920;6.536;2023-02-28T14:39:56;13.70;57.40
61016;DHT22;46902;52.920;6.536;2023-02-28T14:42:37;13.80;56.00
61016;DHT22;46902;52.920;6.536;2023-02-28T14:45:22;13.80;55.30
61016;DHT22;46902;52.920;6.536;2023-02-28T14:47:50;13.70;55.20
61016;DHT22;46902;52.920;6.536;2023-02-28T14:50:26;13.60;55.60
61016;DHT22;46902;52.920;6.536;2023-02-28T14:52:55;13.60;54.50
61016;DHT22;46902;52.920;6.536;2023-02-28T14:55:30;13.40;55.10
61016;DHT22;46902;52.920;6.536;2023-02-28T14:57:58;13.40;54.30
61016;DHT22;46902;52.920;6.536;2023-02-28T15:00:31;13.20;54.60
61016;DHT22;46902;52.920;6.536;2023-02-28T15:02:59;13.10;55.70
61016;DHT22;46902;52.920;6.536;2023-02-28T15:05:30;12.90;56.40
61016;DHT22;46902;52.920;6.536;2023-02-28T15:08:14;12.80;57.20
61016;DHT22;46902;52.920;6.536;2023-02-28T15:10:44;12.70;56.80
61016;DHT22;46902;52.920;6.536;2023-02-28T15:13:13;12.50;57.00
61016;DHT22;46902;52.920;6.536;2023-02-28T15:15:51;12.30;56.90
61016;DHT22;46902;52.920;6.536;2023-02-28T15:20:49;12.00;57.60
61016;DHT22;46902;52.920;6.536;2023-02-28T15:23:15;12.00;58.40
61016;DHT22;46902;52.920;6.536;2023-02-28T15:25:42;11.90;58.40
61016;DHT22;46902;52.920;6.536;2023-02-28T15:28:25;11.80;58.10
61016;DHT22;46902;52.920;6.536;2023-02-28T15:30:57;11.70;58.20
61016;DHT22;46902;52.920;6.536;2023-02-28T15:33:28;11.40;58.30
61016;DHT22;46902;52.920;6.536;2023-02-28T15:36:25;11.40;59.70
61016;DHT22;46902;52.920;6.536;2023-02-28T15:38:53;11.30;60.40
61016;DHT22;46902;52.920;6.536;2023-02-28T15:41:28;11.10;60.60
61016;DHT22;46902;52.920;6.536;2023-02-28T15:44:17;11.10;60.80
61016;DHT22;46902;52.920;6.536;2023-02-28T15:46:53;11.00;60.10
61016;DHT22;46902;52.920;6.536;2023-02-28T15:49:20;10.80;61.40
61016;DHT22;46902;52.920;6.536;2023-02-28T15:51:49;10.80;61.40
61016;DHT22;46902;52.920;6.536;2023-02-28T15:54:21;10.60;61.40
61016;DHT22;46902;52.920;6.536;2023-02-28T15:56:51;10.50;60.80
61016;DHT22;46902;52.920;6.536;2023-02-28T15:59:21;10.40;61.60
61016;DHT22;46902;52.920;6.536;2023-02-28T16:01:47;10.30;61.20
61016;DHT22;46902;52.920;6.536;2023-02-28T16:04:18;10.30;61.20
61016;DHT22;46902;52.920;6.536;2023-02-28T16:09:25;10.10;61.90
61016;DHT22;46902;52.920;6.536;2023-02-28T16:11:54;10.00;62.10
61016;DHT22;46902;52.920;6.536;2023-02-28T16:14:23;10.00;62.20
61016;DHT22;46902;52.920;6.536;2023-02-28T16:16:52;9.90;62.60
61016;DHT22;46902;52.920;6.536;2023-02-28T16:19:18;9.90;62.80
61016;DHT22;46902;52.920;6.536;2023-02-28T16:21:45;9.90;63.00
61016;DHT22;46902;52.920;6.536;2023-02-28T16:24:10;9.80;63.60
61016;DHT22;46902;52.920;6.536;2023-02-28T16:26:36;9.80;63.90
61016;DHT22;46902;52.920;6.536;2023-02-28T16:29:04;9.60;63.80
61016;DHT22;46902;52.920;6.536;2023-02-28T16:31:33;9.60;64.70
61016;DHT22;46902;52.920;6.536;2023-02-28T16:34:00;9.60;65.00
61016;DHT22;46902;52.920;6.536;2023-02-28T16:36:26;9.50;65.20
61016;DHT22;46902;52.920;6.536;2023-02-28T16:38:54;9.50;65.60
61016;DHT22;46902;52.920;6.536;2023-02-28T16:41:22;9.50;65.60
61016;DHT22;46902;52.920;6.536;2023-02-28T16:43:50;9.40;65.90
61016;DHT22;46902;52.920;6.536;2023-02-28T16:46:16;9.30;66.70
61016;DHT22;46902;52.920;6.536;2023-02-28T16:48:44;9.20;66.70
61016;DHT22;46902;52.920;6.536;2023-02-28T16:51:15;9.10;66.80
61016;DHT22;46902;52.920;6.536;2023-02-28T16:53:40;9.10;67.10
61016;DHT22;46902;52.920;6.536;2023-02-28T16:56:14;9.00;67.60
61016;DHT22;46902;52.920;6.536;2023-02-28T16:58:41;8.90;67.80
61016;DHT22;46902;52.920;6.536;2023-02-28T17:01:06;8.80;68.00
61016;DHT22;46902;52.920;6.536;2023-02-28T17:03:32;8.80;68.50
61016;DHT22;46902;52.920;6.536;2023-02-28T17:05:57;8.70;69.60
61016;DHT22;46902;52.920;6.536;2023-02-28T17:08:23;8.50;69.10
61016;DHT22;46902;52.920;6.536;2023-02-28T17:10:49;8.50;69.50
61016;DHT22;46902;52.920;6.536;2023-02-28T17:13:14;8.40;69.80
61016;DHT22;46902;52.920;6.536;2023-02-28T17:15:40;8.30;70.20
61016;DHT22;46902;52.920;6.536;2023-02-28T17:18:06;8.20;70.70
61016;DHT22;46902;52.920;6.536;2023-02-28T17:20:32;8.10;70.80
61016;DHT22;46902;52.920;6.536;2023-02-28T17:22:58;8.00;71.10
61016;DHT22;46902;52.920;6.536;2023-02-28T17:25:26;7.90;71.40
61016;DHT22;46902;52.920;6.536;2023-02-28T17:27:52;7.80;71.40
61016;DHT22;46902;52.920;6.536;2023-02-28T17:30:19;7.70;72.00
61016;DHT22;46902;52.920;6.536;2023-02-28T17:32:45;7.60;72.00
61016;DHT22;46902;52.920;6.536;2023-02-28T17:35:11;7.60;72.00
61016;DHT22;46902;52.920;6.536;2023-02-28T17:37:37;7.60;72.20
61016;DHT22;46902;52.920;6.536;2023-02-28T17:40:03;7.50;72.30
61016;DHT22;46902;52.920;6.536;2023-02-28T17:42:29;7.40;72.70
61016;DHT22;46902;52.920;6.536;2023-02-28T17:44:54;7.30;72.90
61016;DHT22;46902;52.920;6.536;2023-02-28T17:47:20;7.30;73.00
61016;DHT22;46902;52.920;6.536;2023-02-28T17:49:45;7.20;73.10
61016;DHT22;46902;52.920;6.536;2023-02-28T17:52:11;7.10;73.30
61016;DHT22;46902;52.920;6.536;2023-02-28T17:54:36;7.00;73.60
61016;DHT22;46902;52.920;6.536;2023-02-28T17:57:02;7.00;73.90
61016;DHT22;46902;52.920;6.536;2023-02-28T17:59:28;6.90;74.00
61016;DHT22;46902;52.920;6.536;2023-02-28T18:02:02;6.90;74.40
61016;DHT22;46902;52.920;6.536;2023-02-28T18:04:29;6.90;74.80
61016;DHT22;46902;52.920;6.536;2023-02-28T18:06:54;6.80;74.70
61016;DHT22;46902;52.920;6.536;2023-02-28T18:09:25;6.80;74.80
61016;DHT22;46902;52.920;6.536;2023-02-28T18:11:53;6.80;75.20
61016;DHT22;46902;52.920;6.536;2023-02-28T18:14:22;6.70;75.50
61016;DHT22;46902;52.920;6.536;2023-02-28T18:16:50;6.60;75.80
61016;DHT22;46902;52.920;6.536;2023-02-28T18:19:15;6.50;75.80
61016;DHT22;46902;52.920;6.536;2023-02-28T18:21:49;6.50;76.00
61016;DHT22;46902;52.920;6.536;2023-02-28T18:24:17;6.40;76.40
61016;DHT22;46902;52.920;6.536;2023-02-28T18:26:43;6.40;76.50
61016;DHT22;46902;52.920;6.536;2023-02-28T18:29:16;6.40;76.70
61016;DHT22;46902;52.920;6.536;2023-02-28T18:31:42;6.30;76.70